Time;durP1;ratioP1;P1;durP2;ratioP2;P2;SDS_P1;SDS_P2;PMS_P1;PMS_P2;Temp;Humidity;BMP_temperature;BMP_pressure;BME280_temperature;BME280_humidity;BME280_pressure;Samples;Min_cycle;Max_cycle;Signal;HPM_P1;HPM_P2
2023/09/25 00:00:51;;;;;;;4.50;3.10;;;21.80;51.50;;;;;;4998831;28;20102;-68
2023/09/25 00:03:17;;;;;;;4.22;3.00;;;21.90;51.60;;;;;;4998251;28;20029;-67
2023/09/25 00:05:44;;;;;;;4.30;2.92;;;21.90;51.60;;;;;;5000355;28;20106;-62
2023/09/25 00:08:10;;;;;;;4.30;3.20;;;21.90;51.60;;;;;;4997133;28;20026;-62
2023/09/25 00:10:36;;;;;;;3.88;2.60;;;21.90;51.70;;;;;;4997230;28;20478;-63
2023/09/25 00:13:01;;;;;;;4.22;2.90;;;21.80;51.60;;;;;;4996885;28;20026;-62
2023/09/25 00:15:27;;;;;;;4.13;2.90;;;21.80;51.60;;;;;;4997458;28;20550;-66
2023/09/25 00:17:53;;;;;;;3.53;2.75;;;21.80;51.60;;;;;;5001059;28;20096;-66
2023/09/25 00:20:24;;;;;;;4.45;2.97;;;21.80;51.60;;;;;;4996986;28;20061;-66
2023/09/25 00:22:50;;;;;;;4.68;2.83;;;21.80;51.60;;;;;;4999867;28;20104;-66
2023/09/25 00:25:19;;;;;;;4.10;2.83;;;21.80;51.60;;;;;;4998889;28;20045;-67
2023/09/25 00:27:45;;;;;;;4.60;3.10;;;21.80;51.60;;;;;;5012409;28;20034;-66
2023/09/25 00:30:11;;;;;;;3.53;2.67;;;21.80;51.60;;;;;;4998208;28;20049;-65
2023/09/25 00:32:37;;;;;;;3.88;2.72;;;21.80;51.70;;;;;;4998124;28;20529;-66
2023/09/25 00:35:05;;;;;;;3.75;2.78;;;21.80;51.70;;;;;;5005549;28;20042;-66
2023/09/25 00:37:31;;;;;;;4.00;2.65;;;21.80;51.70;;;;;;4996764;28;20026;-66
2023/09/25 00:39:58;;;;;;;3.80;2.78;;;21.80;51.70;;;;;;4999081;28;20081;-66
2023/09/25 00:42:26;;;;;;;4.45;2.75;;;21.80;51.70;;;;;;4998777;28;20041;-66
2023/09/25 00:44:52;;;;;;;4.00;2.85;;;21.80;51.70;;;;;;4996100;28;20028;-64
2023/09/25 00:47:18;;;;;;;4.32;2.90;;;21.80;51.70;;;;;;4998971;28;20030;-64
2023/09/25 00:49:44;;;;;;;4.22;2.70;;;21.80;51.70;;;;;;4997084;28;20034;-64
2023/09/25 00:52:11;;;;;;;4.15;2.72;;;21.80;51.70;;;;;;4999747;28;20050;-64
2023/09/25 00:54:37;;;;;;;3.92;2.67;;;21.80;51.70;;;;;;4995476;28;20038;-65
2023/09/25 00:57:03;;;;;;;3.97;2.42;;;21.80;51.70;;;;;;4998303;28;20088;-65
2023/09/25 00:59:29;;;;;;;3.88;2.53;;;21.80;51.70;;;;;;4996896;28;20042;-66
2023/09/25 01:01:54;;;;;;;4.15;2.80;;;21.80;51.70;;;;;;4997847;28;20113;-66
2023/09/25 01:04:23;;;;;;;3.83;2.58;;;21.70;51.70;;;;;;4998697;28;20058;-65
2023/09/25 01:06:49;;;;;;;3.60;2.63;;;21.70;51.70;;;;;;4999081;28;20022;-66
2023/09/25 01:09:14;;;;;;;3.83;2.63;;;21.70;51.70;;;;;;4997340;28;20104;-66
2023/09/25 01:11:40;;;;;;;4.07;2.80;;;21.70;51.70;;;;;;4997392;28;20079;-66
2023/09/25 01:14:06;;;;;;;4.28;2.60;;;21.70;51.70;;;;;;4996696;28;20373;-66
2023/09/25 01:16:32;;;;;;;3.95;2.75;;;21.70;51.70;;;;;;4998725;28;20068;-66
2023/09/25 01:18:57;;;;;;;3.85;2.65;;;21.70;51.70;;;;;;4999746;28;20033;-66
2023/09/25 01:21:25;;;;;;;3.63;2.40;;;21.70;51.70;;;;;;4997434;28;20489;-67
2023/09/25 01:23:51;;;;;;;3.42;2.40;;;21.70;51.80;;;;;;4998330;28;20105;-67
2023/09/25 01:26:17;;;;;;;3.85;2.50;;;21.70;51.70;;;;;;4999903;28;20554;-66
2023/09/25 01:28:42;;;;;;;3.90;2.80;;;21.70;51.70;;;;;;4999999;28;20060;-66
2023/09/25 01:31:08;;;;;;;3.22;2.30;;;21.70;51.70;;;;;;5001655;28;20045;-67
2023/09/25 01:33:34;;;;;;;3.60;2.45;;;21.70;51.80;;;;;;5002587;28;20470;-66
2023/09/25 01:36:00;;;;;;;3.85;2.78;;;21.70;51.80;;;;;;5000432;28;20654;-61
2023/09/25 01:38:27;;;;;;;3.30;2.38;;;21.70;51.80;;;;;;4998656;28;20122;-62
2023/09/25 01:40:52;;;;;;;3.65;2.47;;;21.70;51.80;;;;;;5000499;28;20022;-62
2023/09/25 01:43:18;;;;;;;3.60;2.25;;;21.70;51.80;;;;;;4999106;28;20038;-61
2023/09/25 01:45:43;;;;;;;3.45;2.33;;;21.70;51.80;;;;;;5001181;28;20076;-62
2023/09/25 01:48:09;;;;;;;3.92;2.50;;;21.70;51.80;;;;;;4998304;28;20376;-62
2023/09/25 01:50:34;;;;;;;3.83;2.40;;;21.70;51.80;;;;;;5001492;28;20038;-61
2023/09/25 01:53:01;;;;;;;3.53;2.22;;;21.70;51.80;;;;;;5001182;28;20471;-62
2023/09/25 01:55:29;;;;;;;2.97;2.10;;;21.70;51.80;;;;;;5000274;28;20104;-63
2023/09/25 01:57:54;;;;;;;3.97;2.70;;;21.70;51.80;;;;;;5000774;28;20022;-63
2023/09/25 02:00:20;;;;;;;4.15;2.40;;;21.60;51.80;;;;;;4999856;28;20037;-62
2023/09/25 02:02:46;;;;;;;3.30;2.25;;;21.60;51.80;;;;;;5000720;28;20083;-63
2023/09/25 02:05:12;;;;;;;3.47;2.33;;;21.60;51.80;;;;;;5001198;28;20502;-65
2023/09/25 02:07:38;;;;;;;3.60;2.40;;;21.60;51.80;;;;;;4999798;28;20016;-63
2023/09/25 02:10:04;;;;;;;3.78;2.55;;;21.60;51.80;;;;;;4998886;28;20104;-64
2023/09/25 02:12:30;;;;;;;3.20;2.53;;;21.60;51.80;;;;;;5001281;28;20034;-65
2023/09/25 02:15:00;;;;;;;3.65;2.35;;;21.60;51.80;;;;;;4997510;28;20040;-64
2023/09/25 02:17:27;;;;;;;3.60;2.55;;;21.60;51.80;;;;;;5001623;28;20037;-65
2023/09/25 02:19:53;;;;;;;3.50;2.40;;;21.60;51.80;;;;;;5000827;28;20154;-64
2023/09/25 02:22:19;;;;;;;3.58;2.22;;;21.60;51.80;;;;;;5001354;28;20372;-64
2023/09/25 02:24:45;;;;;;;2.85;1.90;;;21.60;51.80;;;;;;4999900;28;20103;-64
2023/09/25 02:27:11;;;;;;;2.95;2.05;;;21.60;51.80;;;;;;5000204;28;20026;-66
2023/09/25 02:29:36;;;;;;;3.45;2.20;;;21.60;51.80;;;;;;4999497;28;20035;-67
2023/09/25 02:32:02;;;;;;;3.47;2.20;;;21.60;51.80;;;;;;5001812;28;20036;-66
2023/09/25 02:34:28;;;;;;;3.47;2.28;;;21.60;51.80;;;;;;5000130;28;20389;-66
2023/09/25 02:36:53;;;;;;;2.95;2.08;;;21.60;51.90;;;;;;4999172;28;20041;-65
2023/09/25 02:39:19;;;;;;;3.50;2.20;;;21.60;51.90;;;;;;5000377;28;20049;-66
2023/09/25 02:41:44;;;;;;;2.85;2.05;;;21.50;51.90;;;;;;4999824;28;20381;-66
2023/09/25 02:44:10;;;;;;;2.92;2.00;;;21.50;51.80;;;;;;4997985;28;20029;-66
2023/09/25 02:46:36;;;;;;;2.90;2.10;;;21.50;51.80;;;;;;5000992;28;20034;-67
2023/09/25 02:49:01;;;;;;;4.18;2.40;;;21.60;51.90;;;;;;4999771;28;20414;-66
2023/09/25 02:51:27;;;;;;;3.28;2.20;;;21.50;51.80;;;;;;4999422;28;20093;-67
2023/09/25 02:53:53;;;;;;;3.38;2.15;;;21.50;51.80;;;;;;4998038;28;20549;-66
2023/09/25 02:56:18;;;;;;;3.67;2.30;;;21.60;51.90;;;;;;5001786;28;20477;-67
2023/09/25 02:58:45;;;;;;;2.80;2.00;;;21.50;51.90;;;;;;4997462;28;20065;-67
2023/09/25 03:01:11;;;;;;;3.13;2.13;;;21.60;51.90;;;;;;4997549;28;20029;-66
2023/09/25 03:03:38;;;;;;;3.08;2.10;;;21.50;51.90;;;;;;4999367;28;20022;-67
2023/09/25 03:06:04;;;;;;;2.92;1.80;;;21.50;51.90;;;;;;4999289;28;20027;-66
2023/09/25 03:08:30;;;;;;;2.67;1.98;;;21.50;51.90;;;;;;5000413;28;20022;-67
2023/09/25 03:10:56;;;;;;;3.20;2.40;;;21.50;51.90;;;;;;4999532;28;20044;-66
2023/09/25 03:13:21;;;;;;;3.50;2.10;;;21.50;51.90;;;;;;4999609;28;20018;-67
2023/09/25 03:15:47;;;;;;;3.08;2.00;;;21.50;51.90;;;;;;4998803;28;20045;-64
2023/09/25 03:18:12;;;;;;;3.78;2.25;;;21.50;51.90;;;;;;4998322;28;20038;-63
2023/09/25 03:20:38;;;;;;;2.85;2.00;;;21.50;51.90;;;;;;5001261;28;20081;-64
2023/09/25 03:23:05;;;;;;;2.72;2.00;;;21.50;52.00;;;;;;4997804;28;20040;-61
2023/09/25 03:25:37;;;;;;;3.10;2.22;;;21.50;52.00;;;;;;4999619;28;20026;-62
2023/09/25 03:28:03;;;;;;;2.97;2.08;;;21.50;51.90;;;;;;4997640;28;20444;-60
2023/09/25 03:30:29;;;;;;;3.00;1.77;;;21.50;51.90;;;;;;4998393;28;20429;-62
2023/09/25 03:32:55;;;;;;;3.13;2.10;;;21.50;52.00;;;;;;4999566;28;20089;-62
2023/09/25 03:35:25;;;;;;;2.85;2.00;;;21.50;52.00;;;;;;5000641;28;20037;-61
2023/09/25 03:37:51;;;;;;;3.72;1.95;;;21.50;52.00;;;;;;4998530;28;20041;-66
2023/09/25 03:40:16;;;;;;;3.38;2.25;;;21.50;52.00;;;;;;4998395;28;20026;-66
2023/09/25 03:42:42;;;;;;;2.50;1.85;;;21.40;51.90;;;;;;4998515;28;20033;-66
2023/09/25 03:45:09;;;;;;;2.75;1.75;;;21.50;52.00;;;;;;4998990;28;20027;-66
2023/09/25 03:47:35;;;;;;;3.63;2.35;;;21.40;51.90;;;;;;4998438;28;20034;-66
2023/09/25 03:50:02;;;;;;;2.75;2.00;;;21.50;52.50;;;;;;4999926;28;20029;-66
2023/09/25 03:52:28;;;;;;;2.67;1.75;;;21.50;52.00;;;;;;4999167;28;20096;-65
2023/09/25 03:54:54;;;;;;;3.25;1.92;;;21.40;51.90;;;;;;4999280;28;20022;-66
2023/09/25 03:57:20;;;;;;;2.80;1.98;;;21.50;52.00;;;;;;4995781;28;20040;-64
2023/09/25 03:59:45;;;;;;;2.65;1.80;;;21.50;52.50;;;;;;4995455;28;20390;-65
2023/09/25 04:02:11;;;;;;;2.83;1.90;;;21.40;52.00;;;;;;4998185;28;20062;-65
2023/09/25 04:04:36;;;;;;;3.15;1.92;;;21.40;52.00;;;;;;4999985;28;20035;-65
2023/09/25 04:07:03;;;;;;;2.50;1.63;;;21.40;52.00;;;;;;5000621;28;20105;-65
2023/09/25 04:09:29;;;;;;;2.83;1.80;;;21.40;52.00;;;;;;4997400;28;20049;-65
2023/09/25 04:11:55;;;;;;;2.67;1.80;;;21.40;52.00;;;;;;4996379;28;20076;-65
2023/09/25 04:14:21;;;;;;;2.92;1.80;;;21.40;52.00;;;;;;4997004;28;20038;-63
2023/09/25 04:16:46;;;;;;;3.40;2.13;;;21.40;52.00;;;;;;4997056;28;20137;-62
2023/09/25 04:19:12;;;;;;;3.45;1.90;;;21.40;52.00;;;;;;4998185;28;20430;-65
2023/09/25 04:21:38;;;;;;;2.80;1.92;;;21.40;52.00;;;;;;5000885;28;20026;-65
2023/09/25 04:24:04;;;;;;;2.60;1.70;;;21.40;52.00;;;;;;4998700;28;20026;-65
2023/09/25 04:26:30;;;;;;;2.80;1.80;;;21.40;52.00;;;;;;4998471;28;20331;-63
2023/09/25 04:28:57;;;;;;;2.50;1.67;;;21.40;52.10;;;;;;4999060;28;20509;-64
2023/09/25 04:31:23;;;;;;;2.50;1.70;;;21.40;52.10;;;;;;4997130;28;20030;-62
2023/09/25 04:33:48;;;;;;;3.03;1.80;;;21.40;52.10;;;;;;4998856;28;20108;-63
2023/09/25 04:36:14;;;;;;;3.05;1.95;;;21.40;52.10;;;;;;4998893;28;20497;-62
2023/09/25 04:38:40;;;;;;;2.53;1.77;;;21.40;52.10;;;;;;4998031;28;20040;-63
2023/09/25 04:41:05;;;;;;;2.40;1.60;;;21.40;52.10;;;;;;4999930;28;20036;-61
2023/09/25 04:43:32;;;;;;;2.40;1.65;;;21.30;52.10;;;;;;4996322;28;20461;-63
2023/09/25 04:45:58;;;;;;;2.42;1.45;;;21.30;52.10;;;;;;4998964;28;20033;-67
2023/09/25 04:48:24;;;;;;;2.50;1.60;;;21.40;52.20;;;;;;4997774;28;20030;-67
2023/09/25 04:50:50;;;;;;;2.45;1.67;;;21.40;52.20;;;;;;4997527;28;20034;-67
2023/09/25 04:53:16;;;;;;;2.00;1.40;;;21.30;52.20;;;;;;4999084;28;20041;-67
2023/09/25 04:55:41;;;;;;;2.47;1.60;;;21.40;52.20;;;;;;4996404;28;20140;-67
2023/09/25 04:58:07;;;;;;;2.08;1.50;;;21.40;52.20;;;;;;5000165;28;20057;-67
2023/09/25 05:00:33;;;;;;;2.00;1.35;;;21.40;52.20;;;;;;4999020;28;20118;-67
2023/09/25 05:03:00;;;;;;;2.75;1.52;;;21.40;52.20;;;;;;5001485;28;20032;-67
2023/09/25 05:05:28;;;;;;;2.53;1.55;;;21.40;52.20;;;;;;5002455;28;20029;-64
2023/09/25 05:07:55;;;;;;;2.67;1.70;;;21.30;52.20;;;;;;5002561;28;20038;-64
2023/09/25 05:10:27;;;;;;;2.17;1.55;;;21.40;52.30;;;;;;5000957;28;20054;-65
2023/09/25 05:12:54;;;;;;;2.20;1.45;;;21.30;52.30;;;;;;4999532;28;20041;-62
2023/09/25 05:15:20;;;;;;;2.72;1.55;;;21.30;52.30;;;;;;5000832;28;20026;-62
2023/09/25 05:17:47;;;;;;;2.05;1.48;;;21.30;52.30;;;;;;5002484;28;20034;-62
2023/09/25 05:20:18;;;;;;;2.40;1.65;;;21.30;52.30;;;;;;5002707;28;20032;-62
2023/09/25 05:22:55;;;;;;;2.15;1.42;;;21.30;52.30;;;;;;5000461;28;20033;-62
2023/09/25 05:25:21;;;;;;;2.83;1.63;;;21.30;52.30;;;;;;5001314;28;20026;-62
2023/09/25 05:27:49;;;;;;;2.47;1.50;;;21.30;52.90;;;;;;5000713;28;20025;-62
2023/09/25 05:30:17;;;;;;;2.45;1.45;;;21.30;52.40;;;;;;4998901;28;20674;-62
2023/09/25 05:32:48;;;;;;;2.58;1.58;;;21.30;52.40;;;;;;5001477;28;20109;-62
2023/09/25 05:35:14;;;;;;;2.15;1.38;;;21.30;52.40;;;;;;4999112;28;20041;-62
2023/09/25 05:37:41;;;;;;;3.38;1.50;;;21.30;52.40;;;;;;5001723;28;20053;-65
2023/09/25 05:40:10;;;;;;;2.15;1.50;;;21.30;52.40;;;;;;5000736;28;20026;-65
2023/09/25 05:42:37;;;;;;;2.42;1.30;;;21.30;52.40;;;;;;5000627;28;20030;-66
2023/09/25 05:45:04;;;;;;;2.20;1.17;;;21.30;52.50;;;;;;4999109;28;20026;-65
2023/09/25 05:47:30;;;;;;;2.65;1.60;;;21.30;52.50;;;;;;4998334;28;20029;-68
2023/09/25 05:49:55;;;;;;;2.45;1.45;;;21.30;52.50;;;;;;4998835;28;20041;-68
2023/09/25 05:52:21;;;;;;;2.53;1.30;;;21.30;52.60;;;;;;5000257;28;20786;-66
2023/09/25 05:54:46;;;;;;;2.35;1.50;;;21.30;52.50;;;;;;4999268;28;20105;-65
2023/09/25 05:57:12;;;;;;;3.03;1.70;;;21.30;52.50;;;;;;5000017;28;20490;-66
2023/09/25 05:59:38;;;;;;;2.10;1.40;;;21.30;52.60;;;;;;5000078;28;20034;-67
2023/09/25 06:02:03;;;;;;;2.60;1.50;;;21.30;52.50;;;;;;4998545;28;20118;-67
2023/09/25 06:04:29;;;;;;;2.42;1.48;;;21.20;52.50;;;;;;5000468;28;20027;-68
2023/09/25 06:06:55;;;;;;;2.38;1.52;;;21.30;52.60;;;;;;4999246;28;20041;-68
2023/09/25 06:09:21;;;;;;;2.38;1.50;;;21.30;52.60;;;;;;4999707;28;20092;-68
2023/09/25 06:11:48;;;;;;;1.73;1.17;;;21.30;52.60;;;;;;4998149;28;20030;-67
2023/09/25 06:14:14;;;;;;;2.20;1.40;;;21.30;52.60;;;;;;4998866;28;20026;-67
2023/09/25 06:16:40;;;;;;;2.25;1.30;;;21.30;52.70;;;;;;4998781;28;20095;-64
2023/09/25 06:19:06;;;;;;;1.85;1.30;;;21.20;52.60;;;;;;5001093;28;20036;-65
2023/09/25 06:21:33;;;;;;;1.60;1.10;;;21.20;52.60;;;;;;5007408;28;20033;-65
2023/09/25 06:23:59;;;;;;;2.05;1.35;;;21.30;52.70;;;;;;4999112;28;20031;-65
2023/09/25 06:26:27;;;;;;;1.85;1.20;;;21.30;52.70;;;;;;5002229;28;20048;-65
2023/09/25 06:28:54;;;;;;;2.33;1.30;;;21.30;52.80;;;;;;4999110;28;20106;-65
2023/09/25 06:31:20;;;;;;;2.42;1.40;;;21.30;52.80;;;;;;4998025;28;20482;-65
2023/09/25 06:33:46;;;;;;;2.17;1.40;;;21.30;52.80;;;;;;5000254;28;20110;-65
2023/09/25 06:36:12;;;;;;;2.28;1.33;;;21.30;52.80;;;;;;5000647;28;20060;-65
2023/09/25 06:38:38;;;;;;;2.13;1.20;;;21.20;52.80;;;;;;4999218;28;20057;-65
2023/09/25 06:41:03;;;;;;;2.15;1.30;;;21.20;52.80;;;;;;5000243;28;20085;-65
2023/09/25 06:43:29;;;;;;;2.00;1.40;;;21.20;52.80;;;;;;5001143;28;20028;-65
2023/09/25 06:45:54;;;;;;;1.90;1.35;;;21.20;52.80;;;;;;4997659;28;20045;-65
2023/09/25 06:48:21;;;;;;;1.95;1.25;;;21.20;52.80;;;;;;4998007;28;20038;-65
2023/09/25 06:50:47;;;;;;;1.90;1.23;;;21.20;52.80;;;;;;4999616;28;20431;-65
2023/09/25 06:53:12;;;;;;;1.75;1.15;;;21.20;52.80;;;;;;4999774;28;20072;-65
2023/09/25 06:55:39;;;;;;;2.05;1.40;;;21.20;52.80;;;;;;4998231;28;20034;-68
2023/09/25 06:58:05;;;;;;;2.58;1.30;;;21.20;52.80;;;;;;4999767;28;20037;-68
2023/09/25 07:00:30;;;;;;;2.97;1.20;;;21.20;52.90;;;;;;4998677;28;20478;-68
2023/09/25 07:02:56;;;;;;;3.08;1.50;;;21.20;52.90;;;;;;4998101;28;20452;-68
2023/09/25 07:05:22;;;;;;;2.28;1.30;;;21.20;52.80;;;;;;4999097;28;20057;-68
2023/09/25 07:07:50;;;;;;;1.55;1.05;;;21.20;52.80;;;;;;4999252;28;20027;-68
2023/09/25 07:10:16;;;;;;;2.08;1.30;;;21.20;52.80;;;;;;4998566;28;20026;-68
2023/09/25 07:12:42;;;;;;;1.90;1.20;;;21.20;52.80;;;;;;5001791;28;20022;-68
2023/09/25 07:15:08;;;;;;;2.13;1.20;;;21.20;52.80;;;;;;5001366;28;20755;-68
2023/09/25 07:17:34;;;;;;;1.85;1.30;;;21.20;52.80;;;;;;4997746;28;20497;-68
2023/09/25 07:20:00;;;;;;;2.10;1.33;;;21.30;53.00;;;;;;4997177;28;20038;-66
2023/09/25 07:22:28;;;;;;;3.05;1.30;;;21.30;53.00;;;;;;4999246;28;20126;-66
2023/09/25 07:24:54;;;;;;;3.58;1.30;;;21.20;53.00;;;;;;4997632;28;20045;-66
2023/09/25 07:27:20;;;;;;;2.17;1.30;;;21.20;53.00;;;;;;4998934;28;20105;-62
2023/09/25 07:29:47;;;;;;;2.40;1.25;;;21.20;53.00;;;;;;5014315;28;20034;-65
2023/09/25 07:32:13;;;;;;;1.83;1.10;;;21.20;53.00;;;;;;4996846;28;20443;-63
2023/09/25 07:34:40;;;;;;;1.77;1.15;;;21.20;53.10;;;;;;4997473;28;20038;-63
2023/09/25 07:37:07;;;;;;;2.13;1.30;;;21.20;53.10;;;;;;4998686;28;20040;-66
2023/09/25 07:39:34;;;;;;;2.00;1.17;;;21.20;53.10;;;;;;4998661;28;20146;-66
2023/09/25 07:42:01;;;;;;;2.88;1.20;;;21.20;53.20;;;;;;5013530;28;20547;-65
2023/09/25 07:44:26;;;;;;;1.90;1.20;;;21.20;53.20;;;;;;4999054;28;20022;-66
2023/09/25 07:46:57;;;;;;;2.50;1.20;;;21.20;53.20;;;;;;4998821;28;20391;-65
2023/09/25 07:49:23;;;;;;;2.10;1.30;;;21.20;53.30;;;;;;4998021;28;20038;-66
2023/09/25 07:51:51;;;;;;;2.22;1.20;;;21.30;53.40;;;;;;5006638;28;20037;-65
2023/09/25 07:54:17;;;;;;;1.52;1.00;;;21.30;53.40;;;;;;4998820;28;20034;-66
2023/09/25 07:56:43;;;;;;;2.20;1.20;;;21.30;53.40;;;;;;4999372;28;20034;-65
2023/09/25 07:59:10;;;;;;;2.72;1.40;;;21.30;53.50;;;;;;4999341;28;20155;-66
2023/09/25 08:01:39;;;;;;;1.48;1.05;;;21.30;53.40;;;;;;4996607;28;20513;-65
2023/09/25 08:04:05;;;;;;;1.80;1.10;;;21.30;53.60;;;;;;5006104;28;20524;-66
2023/09/25 08:06:31;;;;;;;2.00;1.05;;;21.30;53.60;;;;;;4997840;28;20258;-66
2023/09/25 08:08:57;;;;;;;2.45;1.30;;;21.20;53.50;;;;;;4997112;28;20501;-66
2023/09/25 08:11:24;;;;;;;1.98;1.13;;;21.30;53.60;;;;;;4997800;28;20415;-66
2023/09/25 08:13:50;;;;;;;1.63;1.08;;;21.30;53.70;;;;;;4998428;28;20123;-65
2023/09/25 08:16:18;;;;;;;1.73;1.10;;;21.30;53.70;;;;;;4995951;28;20026;-62
2023/09/25 08:18:44;;;;;;;2.47;1.30;;;21.30;53.70;;;;;;4997896;28;20054;-61
2023/09/25 08:21:10;;;;;;;2.03;1.40;;;21.30;53.70;;;;;;4997974;28;20139;-61
2023/09/25 08:23:35;;;;;;;2.13;1.13;;;21.30;53.70;;;;;;4998795;28;20486;-60
2023/09/25 08:26:05;;;;;;;1.77;1.02;;;21.30;54.20;;;;;;4998348;28;20026;-62
2023/09/25 08:28:31;;;;;;;;;;;21.30;53.70;;;;;;4999441;28;20399;-62
2023/09/25 08:30:57;;;;;;;1.75;1.10;;;21.30;53.80;;;;;;4997396;28;19961;-62
2023/09/25 08:33:22;;;;;;;2.00;1.15;;;21.30;53.60;;;;;;4998227;28;20030;-60
2023/09/25 08:35:48;;;;;;;2.30;1.25;;;21.30;53.70;;;;;;5002716;28;20115;-66
2023/09/25 08:38:13;;;;;;;1.77;1.30;;;21.20;53.70;;;;;;5001794;28;20042;-66
2023/09/25 08:40:47;;;;;;;1.50;1.00;;;21.30;53.70;;;;;;5002638;28;20026;-66
2023/09/25 08:43:13;;;;;;;1.50;1.08;;;21.30;53.60;;;;;;5001759;28;20385;-66
2023/09/25 08:45:40;;;;;;;1.60;1.10;;;21.20;53.60;;;;;;5002673;28;20074;-67
2023/09/25 08:48:10;;;;;;;1.67;1.10;;;21.20;53.60;;;;;;5002159;28;20129;-67
2023/09/25 08:50:39;;;;;;;2.00;1.30;;;21.30;53.80;;;;;;5002437;28;20161;-67
2023/09/25 08:53:04;;;;;;;1.73;1.10;;;21.30;53.70;;;;;;5002547;28;20022;-66
2023/09/25 08:55:31;;;;;;;3.17;1.48;;;21.30;53.70;;;;;;5000975;28;20067;-69
2023/09/25 08:57:57;;;;;;;1.92;1.17;;;21.30;53.80;;;;;;5001106;28;20038;-66
2023/09/25 09:00:24;;;;;;;1.90;1.17;;;21.30;53.80;;;;;;4999959;28;20102;-66
2023/09/25 09:02:49;;;;;;;1.92;1.17;;;21.20;53.80;;;;;;5000453;28;20069;-66
2023/09/25 09:05:16;;;;;;;1.90;1.20;;;21.30;53.80;;;;;;5001727;28;20484;-67
2023/09/25 09:08:03;;;;;;;1.95;1.27;;;21.20;53.80;;;;;;5003162;28;20069;-67
2023/09/25 09:10:33;;;;;;;2.28;1.30;;;21.30;54.00;;;;;;5001569;28;20026;-66
2023/09/25 09:12:59;;;;;;;1.98;1.20;;;21.30;53.90;;;;;;5003117;28;20137;-66
2023/09/25 09:15:30;;;;;;;1.88;1.30;;;21.30;53.90;;;;;;5001466;28;20029;-66
2023/09/25 09:17:56;;;;;;;2.33;1.30;;;21.30;54.00;;;;;;5001011;28;20076;-67
2023/09/25 09:20:33;;;;;;;1.88;1.15;;;21.20;53.70;;;;;;5001489;28;20106;-67
2023/09/25 09:22:59;;;;;;;1.90;1.20;;;21.30;53.90;;;;;;5002395;28;20022;-66
2023/09/25 09:25:25;;;;;;;1.77;1.20;;;21.30;53.80;;;;;;5016475;28;20079;-67
2023/09/25 09:27:51;;;;;;;1.90;1.00;;;21.30;54.00;;;;;;5000956;28;20026;-65
2023/09/25 09:30:24;;;;;;;1.52;1.02;;;21.30;54.30;;;;;;5000608;28;20038;-66
2023/09/25 09:32:50;;;;;;;2.60;1.27;;;21.30;53.70;;;;;;5001402;28;20037;-66
2023/09/25 09:35:23;;;;;;;1.80;1.20;;;21.30;53.80;;;;;;5003121;28;20030;-66
2023/09/25 09:37:50;;;;;;;1.60;1.10;;;21.30;53.70;;;;;;5000337;28;20019;-65
2023/09/25 09:40:17;;;;;;;2.83;1.50;;;21.30;53.80;;;;;;5001275;28;20025;-66
2023/09/25 09:42:43;;;;;;;1.88;1.20;;;21.30;53.80;;;;;;5000512;28;20026;-66
2023/09/25 09:45:09;;;;;;;1.90;1.00;;;21.30;53.90;;;;;;5002326;28;20033;-67
2023/09/25 09:47:42;;;;;;;1.60;1.10;;;21.30;53.90;;;;;;4999429;28;20014;-67
2023/09/25 09:50:09;;;;;;;2.10;1.20;;;21.30;53.90;;;;;;4998238;28;20034;-66
2023/09/25 09:52:36;;;;;;;1.65;0.98;;;21.30;53.80;;;;;;5002314;28;20121;-66
2023/09/25 09:55:14;;;;;;;2.05;1.23;;;21.30;53.90;;;;;;5001327;28;20026;-66
2023/09/25 09:57:40;;;;;;;1.95;1.15;;;21.30;53.90;;;;;;5000494;28;20474;-63
2023/09/25 10:00:09;;;;;;;1.58;1.10;;;21.30;53.80;;;;;;5000710;28;20040;-63
2023/09/25 10:02:36;;;;;;;1.67;1.08;;;21.30;53.80;;;;;;4999240;28;20076;-63
2023/09/25 10:05:03;;;;;;;1.40;1.00;;;21.30;53.70;;;;;;4999140;28;20502;-64
2023/09/25 10:07:29;;;;;;;1.95;1.23;;;21.40;53.80;;;;;;4999949;28;20144;-63
2023/09/25 10:09:57;;;;;;;1.85;1.30;;;21.30;53.70;;;;;;4999965;28;20045;-64
2023/09/25 10:12:50;;;;;;;2.17;1.20;;;21.40;53.70;;;;;;4998876;28;20037;-63
2023/09/25 10:15:23;;;;;;;1.98;1.15;;;21.40;53.70;;;;;;5000067;28;20030;-63
2023/09/25 10:17:48;;;;;;;1.20;1.00;;;21.40;53.70;;;;;;4998809;28;20029;-64
2023/09/25 10:20:33;;;;;;;1.70;1.05;;;21.40;53.70;;;;;;5001531;28;20099;-64
2023/09/25 10:23:20;;;;;;;1.83;1.10;;;21.30;53.60;;;;;;5000142;28;20022;-64
2023/09/25 10:25:46;;;;;;;1.85;1.10;;;21.40;53.60;;;;;;5002216;28;20029;-63
2023/09/25 10:28:27;;;;;;;2.15;1.10;;;21.30;53.60;;;;;;4999999;28;20411;-63
2023/09/25 10:30:59;;;;;;;1.92;1.20;;;21.40;53.60;;;;;;5002739;28;20134;-63
2023/09/25 10:33:31;;;;;;;1.73;1.05;;;21.40;53.60;;;;;;4999318;28;20032;-63
2023/09/25 10:36:03;;;;;;;1.63;1.10;;;21.30;53.60;;;;;;5000137;28;20091;-62
2023/09/25 10:38:31;;;;;;;2.13;1.20;;;21.30;53.60;;;;;;5001451;28;20014;-63
2023/09/25 10:41:05;;;;;;;1.83;1.10;;;21.40;53.60;;;;;;5000195;28;20034;-61
2023/09/25 10:43:32;;;;;;;1.73;1.15;;;21.30;53.60;;;;;;5000584;28;20437;-61
2023/09/25 10:45:57;;;;;;;2.17;1.20;;;21.30;53.60;;;;;;5000850;28;20022;-61
2023/09/25 10:48:25;;;;;;;1.45;0.95;;;21.30;53.60;;;;;;4999239;28;20117;-61
2023/09/25 10:50:51;;;;;;;1.88;1.00;;;21.30;53.60;;;;;;4999424;28;20543;-61
2023/09/25 10:53:17;;;;;;;2.08;1.10;;;21.30;53.50;;;;;;4999856;28;20034;-62
2023/09/25 10:55:43;;;;;;;1.70;1.17;;;21.30;53.60;;;;;;5000269;28;20038;-66
2023/09/25 10:58:12;;;;;;;2.15;1.30;;;21.40;53.60;;;;;;4999994;28;20022;-66
2023/09/25 11:00:39;;;;;;;1.45;1.00;;;21.30;53.60;;;;;;4998930;28;20058;-67
2023/09/25 11:03:07;;;;;;;1.48;1.05;;;21.30;53.50;;;;;;4997792;28;20512;-67
2023/09/25 11:05:37;;;;;;;1.73;1.00;;;21.40;53.60;;;;;;4999449;28;20362;-64
2023/09/25 11:08:04;;;;;;;1.30;1.00;;;21.40;53.60;;;;;;5000317;28;20026;-64
2023/09/25 11:10:32;;;;;;;1.73;1.00;;;21.40;53.60;;;;;;4998600;28;20540;-65
2023/09/25 11:13:00;;;;;;;1.27;0.93;;;21.40;53.70;;;;;;4999626;28;20454;-64
2023/09/25 11:15:27;;;;;;;1.27;1.00;;;21.40;53.70;;;;;;4999725;28;20150;-64
2023/09/25 11:17:54;;;;;;;1.45;1.00;;;21.40;53.70;;;;;;4995660;28;20477;-64
2023/09/25 11:20:32;;;;;;;1.70;1.10;;;21.40;53.70;;;;;;4998930;28;20474;-64
2023/09/25 11:23:10;;;;;;;1.25;0.85;;;21.40;53.70;;;;;;4998918;28;20429;-66
2023/09/25 11:25:43;;;;;;;1.65;0.93;;;21.40;53.60;;;;;;4999514;28;20366;-64
2023/09/25 11:28:13;;;;;;;1.27;0.88;;;21.40;53.60;;;;;;4999639;28;20033;-63
2023/09/25 11:30:39;;;;;;;1.75;1.00;;;21.40;53.60;;;;;;4999637;28;20034;-64
2023/09/25 11:33:06;;;;;;;1.42;0.90;;;21.40;53.60;;;;;;4996221;28;20041;-64
2023/09/25 11:35:34;;;;;;;1.30;0.93;;;21.40;53.50;;;;;;4999587;28;20052;-63
2023/09/25 11:38:09;;;;;;;1.33;0.93;;;21.40;53.60;;;;;;4999618;28;20030;-64
2023/09/25 11:40:35;;;;;;;1.52;0.93;;;21.40;53.50;;;;;;4999057;28;20077;-64
2023/09/25 11:43:01;;;;;;;2.03;1.00;;;21.40;53.40;;;;;;4998898;28;20379;-64
2023/09/25 11:45:26;;;;;;;1.40;0.98;;;21.40;53.40;;;;;;5000318;28;20036;-67
2023/09/25 11:47:52;;;;;;;2.35;1.00;;;21.40;53.40;;;;;;4998589;28;20114;-67
2023/09/25 11:50:18;;;;;;;1.35;0.90;;;21.40;53.30;;;;;;4998577;28;20089;-67
2023/09/25 11:52:46;;;;;;;1.55;1.00;;;21.40;53.30;;;;;;4998462;28;20026;-67
2023/09/25 11:55:14;;;;;;;1.30;0.90;;;21.40;53.20;;;;;;4999694;28;20131;-67
2023/09/25 11:57:44;;;;;;;1.53;0.90;;;21.40;53.20;;;;;;5015655;28;20062;-67
2023/09/25 12:00:15;;;;;;;1.30;0.90;;;21.40;53.20;;;;;;4999275;28;20030;-66
2023/09/25 12:02:48;;;;;;;1.42;0.98;;;21.40;53.20;;;;;;4999086;28;20038;-66
2023/09/25 12:05:15;;;;;;;1.70;1.00;;;21.40;53.10;;;;;;4995492;28;20430;-66
2023/09/25 12:07:46;;;;;;;1.25;0.98;;;21.40;53.10;;;;;;4996338;28;20033;-66
2023/09/25 12:10:12;;;;;;;1.33;0.85;;;21.40;53.10;;;;;;4997147;28;20040;-66
2023/09/25 12:12:39;;;;;;;1.45;0.90;;;21.40;53.10;;;;;;4998591;28;20022;-66
2023/09/25 12:15:08;;;;;;;1.60;1.08;;;21.50;53.10;;;;;;4997376;28;20022;-66
2023/09/25 12:17:38;;;;;;;1.50;1.00;;;21.40;53.10;;;;;;4998413;28;20034;-67
2023/09/25 12:20:07;;;;;;;1.67;1.10;;;21.40;53.10;;;;;;4995815;28;20388;-66
2023/09/25 12:22:33;;;;;;;1.67;1.00;;;21.40;53.10;;;;;;4998155;28;20132;-65
2023/09/25 12:24:58;;;;;;;1.42;0.93;;;21.40;53.10;;;;;;4999347;28;20484;-66
2023/09/25 12:27:24;;;;;;;1.33;0.90;;;21.40;53.00;;;;;;4996965;28;20026;-66
2023/09/25 12:29:50;;;;;;;2.13;0.93;;;21.40;53.10;;;;;;4998747;28;20026;-66
2023/09/25 12:32:15;;;;;;;1.42;0.95;;;21.40;53.00;;;;;;4997805;28;20094;-66
2023/09/25 12:34:41;;;;;;;1.92;1.23;;;21.40;53.10;;;;;;4998061;28;20030;-67
2023/09/25 12:37:07;;;;;;;1.60;0.90;;;21.40;53.00;;;;;;4997769;28;20042;-67
2023/09/25 12:39:34;;;;;;;1.73;1.00;;;21.50;53.10;;;;;;5000329;28;20162;-67
2023/09/25 12:42:00;;;;;;;1.95;1.10;;;21.40;53.00;;;;;;4998295;28;20036;-67
2023/09/25 12:44:26;;;;;;;2.08;1.10;;;21.40;53.10;;;;;;4996651;28;20030;-67
2023/09/25 12:46:52;;;;;;;1.45;1.00;;;21.40;53.00;;;;;;4997945;28;20198;-67